createdAt,value
2022-11-06T00:03:25.714Z,59.07
2022-11-06T00:09:27.789Z,57.75
2022-11-06T00:15:29.783Z,61.97
2022-11-06T00:21:32.029Z,58.43
2022-11-06T00:27:37.568Z,65.72
2022-11-06T00:33:40.218Z,66.38
2022-11-06T00:45:44.185Z,63.65
2022-11-06T00:51:46.487Z,68.83
2022-11-06T00:57:48.680Z,76.57
2022-11-06T01:03:56.558Z,70.80
2022-11-06T01:09:58.753Z,73.38
2022-11-06T01:16:00.898Z,69.00
2022-11-06T01:22:03.093Z,74.00
2022-11-06T01:28:05.664Z,64.15
2022-11-06T01:34:08.015Z,65.07
2022-11-06T01:40:10.579Z,68.63
2022-11-06T01:46:13.001Z,75.80
2022-11-06T01:52:16.176Z,76.38
2022-11-06T01:58:21.914Z,76.18
2022-11-06T02:04:27.354Z,73.10
2022-11-06T02:10:30.023Z,83.13
2022-11-06T02:16:46.279Z,76.78
2022-11-06T02:23:31.966Z,76.20
2022-11-06T02:29:37.052Z,75.88
2022-11-06T02:36:02.040Z,62.72
2022-11-06T02:42:06.229Z,70.80
2022-11-06T02:48:11.114Z,69.32
2022-11-06T02:54:14.640Z,69.63
2022-11-06T03:00:17.635Z,64.72
2022-11-06T03:06:41.474Z,79.95
2022-11-06T03:12:58.850Z,73.43
2022-11-06T03:19:08.120Z,71.72
2022-11-06T03:25:28.791Z,63.38
2022-11-06T03:31:36.921Z,65.05
2022-11-06T03:38:08.580Z,57.10
2022-11-06T03:44:15.050Z,60.70
2022-11-06T03:50:38.212Z,69.97
2022-11-06T03:57:02.945Z,51.53
2022-11-06T04:03:13.965Z,62.67
2022-11-06T04:09:37.102Z,61.75
2022-11-06T04:15:49.340Z,62.50
2022-11-06T04:21:57.523Z,48.88
2022-11-06T04:28:27.006Z,46.28
2022-11-06T04:34:56.012Z,74.53
2022-11-06T04:41:26.956Z,56.60
2022-11-06T04:47:29.747Z,40.00
2022-11-06T04:53:33.460Z,56.17
2022-11-06T04:59:37.331Z,46.17
2022-11-06T05:05:39.510Z,48.05
2022-11-06T05:11:41.376Z,58.25
2022-11-06T05:17:43.498Z,53.30
2022-11-06T05:23:45.744Z,48.10
2022-11-06T05:29:47.821Z,49.80
2022-11-06T05:35:50.529Z,57.93
2022-11-06T05:47:54.653Z,38.72
2022-11-06T05:53:56.753Z,45.30
2022-11-06T05:59:59.415Z,42.92
2022-11-06T06:06:01.329Z,53.58
2022-11-06T06:12:03.415Z,48.57
2022-11-06T06:18:06.328Z,41.60
2022-11-06T06:24:08.423Z,48.10
2022-11-06T06:30:11.244Z,46.95
2022-11-06T06:42:15.393Z,41.30
2022-11-06T06:48:17.649Z,46.08
2022-11-06T06:54:19.878Z,53.80
2022-11-06T07:00:21.915Z,35.13
2022-11-06T07:06:24.826Z,53.67
2022-11-06T07:12:27.767Z,41.63
2022-11-06T07:18:29.864Z,36.08
2022-11-06T07:24:31.909Z,37.97
2022-11-06T07:30:35.909Z,31.93
2022-11-06T07:36:38.066Z,41.90
2022-11-06T07:42:43.526Z,54.50
2022-11-06T07:48:50.529Z,40.75
2022-11-06T07:54:52.625Z,35.85
2022-11-06T08:00:57.579Z,30.77
2022-11-06T08:06:59.560Z,28.83
2022-11-06T08:13:01.748Z,27.50
2022-11-06T08:19:03.805Z,31.55
2022-11-06T08:25:06.986Z,25.77
2022-11-06T08:31:09.705Z,24.65
2022-11-06T08:37:11.996Z,23.92
2022-11-06T08:43:14.441Z,28.52
2022-11-06T08:55:18.821Z,36.85
2022-11-06T09:01:21.123Z,32.00
2022-11-06T09:07:23.413Z,30.08
2022-11-06T09:13:25.471Z,39.92
2022-11-06T09:19:27.622Z,24.90
2022-11-06T09:25:30.278Z,35.88
2022-11-06T09:31:32.812Z,32.95
2022-11-06T09:37:34.822Z,42.13
2022-11-06T09:44:06.197Z,35.63
2022-11-06T09:50:16.987Z,27.83
2022-11-06T09:56:22.004Z,31.23
2022-11-06T10:02:34.088Z,46.63
2022-11-06T10:08:36.556Z,38.77
2022-11-06T10:14:52.800Z,32.15
2022-11-06T10:21:03.877Z,29.05
2022-11-06T10:27:18.950Z,37.35
2022-11-06T10:33:39.119Z,29.65
2022-11-06T10:39:41.591Z,40.10
2022-11-06T10:51:57.864Z,35.60
2022-11-06T10:58:02.422Z,31.20
2022-11-06T11:04:04.638Z,27.15
2022-11-06T11:16:32.426Z,34.65
2022-11-06T11:22:34.733Z,40.38
2022-11-06T11:28:37.996Z,33.15
2022-11-06T11:34:51.383Z,26.55
2022-11-06T11:41:12.102Z,32.83
2022-11-06T11:47:23.928Z,31.67
2022-11-06T11:53:26.000Z,32.50
2022-11-06T11:59:38.685Z,24.90
2022-11-06T12:05:41.481Z,35.45
2022-11-06T12:11:43.988Z,31.02
2022-11-06T12:18:03.544Z,28.38
2022-11-06T12:24:39.582Z,32.97
2022-11-06T12:30:44.380Z,27.35
2022-11-06T12:37:14.099Z,41.85
2022-11-06T12:43:35.227Z,21.42
2022-11-06T12:49:43.281Z,36.67
2022-11-06T12:56:15.418Z,31.55
2022-11-06T13:02:43.586Z,33.25
2022-11-06T13:08:52.006Z,34.05
2022-11-06T13:14:53.973Z,32.35
2022-11-06T13:21:20.273Z,36.47
2022-11-06T13:27:31.682Z,25.55
2022-11-06T13:33:56.961Z,27.77
2022-11-06T13:40:10.548Z,33.95
2022-11-06T13:46:41.205Z,34.35
2022-11-06T13:53:07.862Z,33.65
2022-11-06T13:59:47.038Z,25.75
2022-11-06T14:06:26.733Z,37.10
2022-11-06T14:12:28.940Z,32.92
2022-11-06T14:18:32.468Z,23.90
2022-11-06T14:24:42.002Z,34.10
2022-11-06T14:31:11.129Z,29.40
2022-11-06T14:37:18.848Z,26.00
2022-11-06T14:43:28.014Z,27.48
2022-11-06T14:49:44.179Z,39.28
2022-11-06T14:55:59.467Z,41.60
2022-11-06T15:02:24.947Z,33.38
2022-11-06T15:08:45.892Z,28.70
2022-11-06T15:14:48.350Z,22.90
2022-11-06T15:20:53.771Z,21.65
2022-11-06T15:26:59.737Z,45.28
2022-11-06T15:33:04.692Z,31.67
2022-11-06T15:39:34.905Z,19.38
2022-11-06T15:45:37.636Z,45.78
2022-11-06T15:51:40.524Z,30.38
2022-11-06T15:57:46.036Z,29.02
2022-11-06T16:03:52.361Z,30.98
2022-11-06T16:09:54.544Z,21.02
2022-11-06T16:16:03.047Z,21.60
2022-11-06T16:22:29.775Z,21.15
2022-11-06T16:28:33.514Z,23.70
2022-11-06T16:34:40.131Z,27.13
2022-11-06T16:40:45.044Z,16.48
2022-11-06T16:47:05.296Z,22.55
2022-11-06T16:53:10.350Z,26.98
2022-11-06T16:59:16.841Z,20.13
2022-11-06T17:05:24.572Z,24.33
2022-11-06T17:11:26.739Z,22.75
2022-11-06T17:17:28.757Z,21.67
2022-11-06T17:23:31.871Z,18.80
2022-11-06T17:29:36.781Z,21.80
2022-11-06T17:35:39.089Z,27.73
2022-11-06T17:41:41.568Z,15.10
2022-11-06T17:47:43.807Z,21.58
2022-11-06T17:53:46.011Z,18.45
2022-11-06T17:59:48.414Z,19.15
2022-11-06T18:05:50.740Z,23.30
2022-11-06T18:11:54.737Z,22.45
2022-11-06T18:17:56.993Z,17.83
2022-11-06T18:24:00.097Z,18.30
2022-11-06T18:30:02.574Z,21.02
2022-11-06T18:42:08.358Z,23.05
2022-11-06T18:48:10.834Z,17.63
2022-11-06T19:00:15.715Z,17.77
2022-11-06T19:12:21.287Z,22.65
2022-11-06T19:18:23.670Z,20.00
2022-11-06T19:24:25.890Z,20.15
2022-11-06T19:30:28.757Z,24.33
2022-11-06T19:36:32.190Z,23.30
2022-11-06T19:42:34.665Z,16.20
2022-11-06T19:48:37.031Z,22.30
2022-11-06T19:54:39.418Z,18.63
2022-11-06T20:00:42.136Z,15.52
2022-11-06T20:06:45.610Z,21.17
2022-11-06T20:18:52.196Z,12.50
2022-11-06T20:24:54.501Z,15.95
2022-11-06T20:30:56.792Z,13.80
2022-11-06T20:36:59.833Z,19.88
2022-11-06T20:43:02.442Z,12.15
2022-11-06T20:55:07.078Z,12.65
2022-11-06T21:01:17.499Z,15.07
2022-11-06T21:07:19.858Z,19.30
2022-11-06T21:13:21.983Z,18.33
2022-11-06T21:19:24.515Z,20.60
2022-11-06T21:25:26.660Z,21.38
2022-11-06T21:31:31.122Z,20.70
2022-11-06T21:37:33.511Z,20.50
2022-11-06T21:43:35.940Z,15.93
2022-11-06T21:49:38.046Z,16.77
2022-11-06T21:55:59.029Z,18.03
2022-11-06T22:02:01.381Z,17.70
2022-11-06T22:08:03.539Z,14.15
2022-11-06T22:14:12.124Z,9.73
2022-11-06T22:20:14.170Z,23.65
2022-11-06T22:26:22.442Z,15.77
2022-11-06T22:32:24.770Z,12.52
2022-11-06T22:44:33.302Z,20.05
2022-11-06T22:50:35.889Z,15.98
2022-11-06T22:56:38.298Z,19.35
2022-11-06T23:02:40.688Z,18.30
2022-11-06T23:08:46.947Z,18.23
2022-11-06T23:14:49.625Z,24.02
2022-11-06T23:20:51.801Z,11.23
2022-11-06T23:26:53.984Z,23.40
2022-11-06T23:32:56.402Z,9.23
2022-11-06T23:38:58.760Z,13.80
2022-11-06T23:45:19.217Z,17.35
2022-11-06T23:51:21.845Z,15.48
